sensor_id;sensor_type;location;lat;lon;timestamp;P1;durP1;ratioP1;P2;durP2;ratioP2
28836;SDS011;50669;50.982;11.022;2023-06-22T00:00:08;4.25;;;3.55;;
28836;SDS011;50669;50.982;11.022;2023-06-22T00:02:37;4.60;;;3.90;;
28836;SDS011;50669;50.982;11.022;2023-06-22T00:05:02;5.03;;;4.53;;
28836;SDS011;50669;50.982;11.022;2023-06-22T00:07:28;4.63;;;4.18;;
28836;SDS011;50669;50.982;11.022;2023-06-22T00:09:54;5.68;;;4.35;;
28836;SDS011;50669;50.982;11.022;2023-06-22T00:12:22;6.90;;;4.38;;
28836;SDS011;50669;50.982;11.022;2023-06-22T00:14:47;5.47;;;4.03;;
28836;SDS011;50669;50.982;11.022;2023-06-22T00:17:13;4.85;;;3.70;;
28836;SDS011;50669;50.982;11.022;2023-06-22T00:19:38;5.32;;;4.30;;
28836;SDS011;50669;50.982;11.022;2023-06-22T00:22:05;4.55;;;3.92;;
28836;SDS011;50669;50.982;11.022;2023-06-22T00:24:31;4.10;;;3.70;;
28836;SDS011;50669;50.982;11.022;2023-06-22T00:26:56;5.63;;;3.97;;
28836;SDS011;50669;50.982;11.022;2023-06-22T00:29:24;5.55;;;4.47;;
28836;SDS011;50669;50.982;11.022;2023-06-22T00:31:52;4.18;;;3.72;;
28836;SDS011;50669;50.982;11.022;2023-06-22T00:34:20;5.38;;;4.00;;
28836;SDS011;50669;50.982;11.022;2023-06-22T00:36:46;4.50;;;3.95;;
28836;SDS011;50669;50.982;11.022;2023-06-22T00:39:14;6.32;;;4.05;;
28836;SDS011;50669;50.982;11.022;2023-06-22T00:41:39;4.22;;;3.65;;
28836;SDS011;50669;50.982;11.022;2023-06-22T00:44:05;4.07;;;3.67;;
28836;SDS011;50669;50.982;11.022;2023-06-22T00:46:33;3.90;;;3.33;;
28836;SDS011;50669;50.982;11.022;2023-06-22T00:48:59;3.78;;;3.40;;
28836;SDS011;50669;50.982;11.022;2023-06-22T00:51:25;5.35;;;4.13;;
28836;SDS011;50669;50.982;11.022;2023-06-22T00:53:53;3.60;;;3.30;;
28836;SDS011;50669;50.982;11.022;2023-06-22T00:56:23;4.80;;;4.00;;
28836;SDS011;50669;50.982;11.022;2023-06-22T00:58:54;4.25;;;3.70;;
28836;SDS011;50669;50.982;11.022;2023-06-22T01:01:22;4.43;;;3.90;;
28836;SDS011;50669;50.982;11.022;2023-06-22T01:03:48;4.70;;;4.30;;
28836;SDS011;50669;50.982;11.022;2023-06-22T01:06:16;4.28;;;3.90;;
28836;SDS011;50669;50.982;11.022;2023-06-22T01:08:57;5.15;;;4.43;;
28836;SDS011;50669;50.982;11.022;2023-06-22T01:11:38;4.95;;;4.43;;
28836;SDS011;50669;50.982;11.022;2023-06-22T01:14:23;5.97;;;3.88;;
28836;SDS011;50669;50.982;11.022;2023-06-22T01:16:55;4.25;;;3.85;;
28836;SDS011;50669;50.982;11.022;2023-06-22T01:22:12;4.93;;;4.53;;
28836;SDS011;50669;50.982;11.022;2023-06-22T01:29:57;6.15;;;4.38;;
28836;SDS011;50669;50.982;11.022;2023-06-22T01:32:29;6.05;;;4.50;;
28836;SDS011;50669;50.982;11.022;2023-06-22T01:34:58;7.38;;;4.72;;
28836;SDS011;50669;50.982;11.022;2023-06-22T01:37:32;4.75;;;4.30;;
28836;SDS011;50669;50.982;11.022;2023-06-22T01:40:00;7.05;;;4.90;;
28836;SDS011;50669;50.982;11.022;2023-06-22T01:42:30;5.03;;;4.53;;
28836;SDS011;50669;50.982;11.022;2023-06-22T01:44:56;4.95;;;3.85;;
28836;SDS011;50669;50.982;11.022;2023-06-22T01:47:25;5.18;;;4.45;;
28836;SDS011;50669;50.982;11.022;2023-06-22T01:49:52;5.35;;;4.43;;
28836;SDS011;50669;50.982;11.022;2023-06-22T01:52:19;4.78;;;4.28;;
28836;SDS011;50669;50.982;11.022;2023-06-22T01:54:48;5.43;;;4.68;;
28836;SDS011;50669;50.982;11.022;2023-06-22T01:57:14;5.03;;;4.53;;
28836;SDS011;50669;50.982;11.022;2023-06-22T02:02:27;5.72;;;4.95;;
28836;SDS011;50669;50.982;11.022;2023-06-22T02:05:08;5.40;;;4.90;;
28836;SDS011;50669;50.982;11.022;2023-06-22T02:07:45;7.72;;;5.15;;
28836;SDS011;50669;50.982;11.022;2023-06-22T02:10:15;6.97;;;4.63;;
28836;SDS011;50669;50.982;11.022;2023-06-22T02:15:13;6.72;;;5.15;;
28836;SDS011;50669;50.982;11.022;2023-06-22T02:17:42;7.40;;;5.10;;
28836;SDS011;50669;50.982;11.022;2023-06-22T02:20:13;5.80;;;4.57;;
28836;SDS011;50669;50.982;11.022;2023-06-22T02:22:39;5.15;;;4.28;;
28836;SDS011;50669;50.982;11.022;2023-06-22T02:25:05;6.60;;;4.85;;
28836;SDS011;50669;50.982;11.022;2023-06-22T02:27:33;7.65;;;5.22;;
28836;SDS011;50669;50.982;11.022;2023-06-22T02:30:00;5.60;;;4.97;;
28836;SDS011;50669;50.982;11.022;2023-06-22T02:32:26;12.38;;;5.20;;
28836;SDS011;50669;50.982;11.022;2023-06-22T02:34:52;7.47;;;5.07;;
28836;SDS011;50669;50.982;11.022;2023-06-22T02:37:18;6.20;;;4.88;;
28836;SDS011;50669;50.982;11.022;2023-06-22T02:39:44;5.93;;;4.97;;
28836;SDS011;50669;50.982;11.022;2023-06-22T02:42:11;5.97;;;4.90;;
28836;SDS011;50669;50.982;11.022;2023-06-22T02:44:37;6.75;;;5.07;;
28836;SDS011;50669;50.982;11.022;2023-06-22T02:47:03;5.55;;;4.78;;
28836;SDS011;50669;50.982;11.022;2023-06-22T02:49:29;5.40;;;4.90;;
28836;SDS011;50669;50.982;11.022;2023-06-22T02:51:55;6.28;;;4.70;;
28836;SDS011;50669;50.982;11.022;2023-06-22T02:54:23;6.05;;;4.47;;
28836;SDS011;50669;50.982;11.022;2023-06-22T02:56:51;5.95;;;4.75;;
28836;SDS011;50669;50.982;11.022;2023-06-22T02:59:19;5.45;;;4.35;;
28836;SDS011;50669;50.982;11.022;2023-06-22T03:01:49;6.63;;;4.90;;
28836;SDS011;50669;50.982;11.022;2023-06-22T03:04:17;5.60;;;5.00;;
28836;SDS011;50669;50.982;11.022;2023-06-22T03:06:45;6.05;;;5.00;;
28836;SDS011;50669;50.982;11.022;2023-06-22T03:09:18;5.68;;;5.07;;
28836;SDS011;50669;50.982;11.022;2023-06-22T03:11:43;5.63;;;4.93;;
28836;SDS011;50669;50.982;11.022;2023-06-22T03:14:09;5.97;;;5.07;;
28836;SDS011;50669;50.982;11.022;2023-06-22T03:16:34;5.78;;;4.75;;
28836;SDS011;50669;50.982;11.022;2023-06-22T03:19:02;6.90;;;4.80;;
28836;SDS011;50669;50.982;11.022;2023-06-22T03:21:30;4.78;;;4.38;;
28836;SDS011;50669;50.982;11.022;2023-06-22T03:23:58;4.60;;;4.13;;
28836;SDS011;50669;50.982;11.022;2023-06-22T03:26:28;5.30;;;4.38;;
28836;SDS011;50669;50.982;11.022;2023-06-22T03:28:57;7.40;;;5.05;;
28836;SDS011;50669;50.982;11.022;2023-06-22T03:31:23;6.38;;;4.68;;
28836;SDS011;50669;50.982;11.022;2023-06-22T03:33:49;4.90;;;4.40;;
28836;SDS011;50669;50.982;11.022;2023-06-22T03:36:15;5.93;;;4.72;;
28836;SDS011;50669;50.982;11.022;2023-06-22T03:38:44;6.53;;;4.78;;
28836;SDS011;50669;50.982;11.022;2023-06-22T03:41:13;6.72;;;5.45;;
28836;SDS011;50669;50.982;11.022;2023-06-22T03:43:38;7.38;;;5.03;;
28836;SDS011;50669;50.982;11.022;2023-06-22T03:46:04;9.52;;;5.57;;
28836;SDS011;50669;50.982;11.022;2023-06-22T03:48:30;11.05;;;6.35;;
28836;SDS011;50669;50.982;11.022;2023-06-22T03:50:56;6.57;;;5.70;;
28836;SDS011;50669;50.982;11.022;2023-06-22T03:53:27;7.57;;;6.13;;
28836;SDS011;50669;50.982;11.022;2023-06-22T03:55:53;7.07;;;5.80;;
28836;SDS011;50669;50.982;11.022;2023-06-22T03:58:21;7.60;;;5.50;;
28836;SDS011;50669;50.982;11.022;2023-06-22T04:00:50;7.40;;;5.55;;
28836;SDS011;50669;50.982;11.022;2023-06-22T04:03:17;8.32;;;6.07;;
28836;SDS011;50669;50.982;11.022;2023-06-22T04:05:45;7.43;;;6.05;;
28836;SDS011;50669;50.982;11.022;2023-06-22T04:08:12;6.95;;;6.07;;
28836;SDS011;50669;50.982;11.022;2023-06-22T04:10:38;7.80;;;6.40;;
28836;SDS011;50669;50.982;11.022;2023-06-22T04:13:06;7.63;;;6.15;;
28836;SDS011;50669;50.982;11.022;2023-06-22T04:15:31;7.70;;;6.95;;
28836;SDS011;50669;50.982;11.022;2023-06-22T04:17:59;7.60;;;6.22;;
28836;SDS011;50669;50.982;11.022;2023-06-22T04:20:27;7.80;;;6.32;;
28836;SDS011;50669;50.982;11.022;2023-06-22T04:22:53;7.03;;;6.00;;
28836;SDS011;50669;50.982;11.022;2023-06-22T04:25:19;17.70;;;6.78;;
28836;SDS011;50669;50.982;11.022;2023-06-22T04:27:48;6.97;;;6.28;;
28836;SDS011;50669;50.982;11.022;2023-06-22T04:30:14;9.00;;;7.05;;
28836;SDS011;50669;50.982;11.022;2023-06-22T04:32:41;10.48;;;6.80;;
28836;SDS011;50669;50.982;11.022;2023-06-22T04:35:07;9.95;;;7.43;;
28836;SDS011;50669;50.982;11.022;2023-06-22T04:37:38;8.48;;;6.63;;
28836;SDS011;50669;50.982;11.022;2023-06-22T04:40:04;10.48;;;6.93;;
28836;SDS011;50669;50.982;11.022;2023-06-22T04:42:33;10.63;;;7.03;;
28836;SDS011;50669;50.982;11.022;2023-06-22T04:45:00;8.40;;;6.57;;
28836;SDS011;50669;50.982;11.022;2023-06-22T04:47:29;15.85;;;6.90;;
28836;SDS011;50669;50.982;11.022;2023-06-22T04:49:57;10.05;;;7.65;;
28836;SDS011;50669;50.982;11.022;2023-06-22T04:52:25;11.65;;;6.97;;
28836;SDS011;50669;50.982;11.022;2023-06-22T04:54:53;10.43;;;6.68;;
28836;SDS011;50669;50.982;11.022;2023-06-22T04:57:22;11.20;;;6.82;;
28836;SDS011;50669;50.982;11.022;2023-06-22T04:59:58;10.32;;;6.90;;
28836;SDS011;50669;50.982;11.022;2023-06-22T05:02:36;9.68;;;7.13;;
28836;SDS011;50669;50.982;11.022;2023-06-22T05:05:02;10.65;;;6.53;;
28836;SDS011;50669;50.982;11.022;2023-06-22T05:07:32;11.25;;;7.78;;
28836;SDS011;50669;50.982;11.022;2023-06-22T05:09:58;10.52;;;8.23;;
28836;SDS011;50669;50.982;11.022;2023-06-22T05:12:24;7.82;;;6.32;;
28836;SDS011;50669;50.982;11.022;2023-06-22T05:14:52;8.35;;;6.28;;
28836;SDS011;50669;50.982;11.022;2023-06-22T05:17:18;9.02;;;6.88;;
28836;SDS011;50669;50.982;11.022;2023-06-22T05:19:45;11.32;;;7.07;;
28836;SDS011;50669;50.982;11.022;2023-06-22T05:22:15;9.50;;;6.88;;
28836;SDS011;50669;50.982;11.022;2023-06-22T05:24:40;10.77;;;6.95;;
28836;SDS011;50669;50.982;11.022;2023-06-22T05:27:06;7.32;;;6.55;;
28836;SDS011;50669;50.982;11.022;2023-06-22T05:29:37;8.93;;;6.78;;
28836;SDS011;50669;50.982;11.022;2023-06-22T05:32:03;9.63;;;7.18;;
28836;SDS011;50669;50.982;11.022;2023-06-22T05:34:32;8.30;;;6.57;;
28836;SDS011;50669;50.982;11.022;2023-06-22T05:36:57;11.55;;;7.60;;
28836;SDS011;50669;50.982;11.022;2023-06-22T05:39:26;12.35;;;7.45;;
28836;SDS011;50669;50.982;11.022;2023-06-22T05:41:52;8.95;;;7.15;;
28836;SDS011;50669;50.982;11.022;2023-06-22T05:44:18;14.77;;;7.65;;
28836;SDS011;50669;50.982;11.022;2023-06-22T05:46:48;8.50;;;6.65;;
28836;SDS011;50669;50.982;11.022;2023-06-22T05:49:15;8.23;;;6.22;;
28836;SDS011;50669;50.982;11.022;2023-06-22T05:51:41;8.32;;;5.88;;
28836;SDS011;50669;50.982;11.022;2023-06-22T05:54:09;9.80;;;5.70;;
28836;SDS011;50669;50.982;11.022;2023-06-22T05:56:35;7.07;;;5.28;;
28836;SDS011;50669;50.982;11.022;2023-06-22T05:59:01;7.97;;;5.20;;
28836;SDS011;50669;50.982;11.022;2023-06-22T06:01:26;8.32;;;5.28;;
28836;SDS011;50669;50.982;11.022;2023-06-22T06:03:52;10.45;;;5.68;;
28836;SDS011;50669;50.982;11.022;2023-06-22T06:06:18;7.10;;;5.60;;
28836;SDS011;50669;50.982;11.022;2023-06-22T06:08:47;8.45;;;5.03;;
28836;SDS011;50669;50.982;11.022;2023-06-22T06:11:12;6.95;;;5.18;;
28836;SDS011;50669;50.982;11.022;2023-06-22T06:13:40;8.18;;;5.22;;
28836;SDS011;50669;50.982;11.022;2023-06-22T06:16:08;7.45;;;5.15;;
28836;SDS011;50669;50.982;11.022;2023-06-22T06:18:34;7.35;;;4.88;;
28836;SDS011;50669;50.982;11.022;2023-06-22T06:21:02;6.40;;;5.35;;
28836;SDS011;50669;50.982;11.022;2023-06-22T06:23:31;10.65;;;5.20;;
28836;SDS011;50669;50.982;11.022;2023-06-22T06:25:57;6.20;;;4.82;;
28836;SDS011;50669;50.982;11.022;2023-06-22T06:28:24;6.25;;;5.00;;
28836;SDS011;50669;50.982;11.022;2023-06-22T06:30:52;7.15;;;5.10;;
28836;SDS011;50669;50.982;11.022;2023-06-22T06:33:21;6.80;;;4.70;;
28836;SDS011;50669;50.982;11.022;2023-06-22T06:35:48;6.63;;;5.03;;
28836;SDS011;50669;50.982;11.022;2023-06-22T06:38:16;6.40;;;5.28;;
28836;SDS011;50669;50.982;11.022;2023-06-22T06:40:42;7.15;;;4.75;;
28836;SDS011;50669;50.982;11.022;2023-06-22T06:43:09;7.00;;;4.60;;
28836;SDS011;50669;50.982;11.022;2023-06-22T06:45:37;7.43;;;4.43;;
28836;SDS011;50669;50.982;11.022;2023-06-22T06:48:03;8.52;;;5.00;;
28836;SDS011;50669;50.982;11.022;2023-06-22T06:50:28;7.03;;;4.25;;
28836;SDS011;50669;50.982;11.022;2023-06-22T06:52:54;6.45;;;4.57;;
28836;SDS011;50669;50.982;11.022;2023-06-22T06:55:21;7.90;;;4.60;;
28836;SDS011;50669;50.982;11.022;2023-06-22T06:57:50;6.07;;;4.57;;
28836;SDS011;50669;50.982;11.022;2023-06-22T07:00:18;6.25;;;4.80;;
28836;SDS011;50669;50.982;11.022;2023-06-22T07:02:46;6.93;;;4.57;;
28836;SDS011;50669;50.982;11.022;2023-06-22T07:05:14;5.82;;;4.80;;
28836;SDS011;50669;50.982;11.022;2023-06-22T07:07:40;7.10;;;4.63;;
28836;SDS011;50669;50.982;11.022;2023-06-22T07:10:09;6.03;;;5.28;;
28836;SDS011;50669;50.982;11.022;2023-06-22T07:12:35;5.60;;;4.53;;
28836;SDS011;50669;50.982;11.022;2023-06-22T07:15:04;5.95;;;4.38;;
28836;SDS011;50669;50.982;11.022;2023-06-22T07:17:33;6.45;;;4.78;;
28836;SDS011;50669;50.982;11.022;2023-06-22T07:19:59;6.38;;;5.03;;
28836;SDS011;50669;50.982;11.022;2023-06-22T07:22:26;6.40;;;4.68;;
28836;SDS011;50669;50.982;11.022;2023-06-22T07:24:51;5.70;;;4.63;;
28836;SDS011;50669;50.982;11.022;2023-06-22T07:27:17;6.30;;;4.45;;
28836;SDS011;50669;50.982;11.022;2023-06-22T07:29:46;6.25;;;4.85;;
28836;SDS011;50669;50.982;11.022;2023-06-22T07:32:12;5.60;;;4.80;;
28836;SDS011;50669;50.982;11.022;2023-06-22T07:34:39;6.25;;;4.32;;
28836;SDS011;50669;50.982;11.022;2023-06-22T07:37:06;5.75;;;4.60;;
28836;SDS011;50669;50.982;11.022;2023-06-22T07:39:36;6.00;;;4.10;;
28836;SDS011;50669;50.982;11.022;2023-06-22T07:42:07;5.85;;;4.25;;
28836;SDS011;50669;50.982;11.022;2023-06-22T07:44:35;5.68;;;4.43;;
28836;SDS011;50669;50.982;11.022;2023-06-22T07:47:03;6.85;;;4.10;;
28836;SDS011;50669;50.982;11.022;2023-06-22T07:49:29;9.65;;;4.60;;
28836;SDS011;50669;50.982;11.022;2023-06-22T07:51:55;4.78;;;4.28;;
28836;SDS011;50669;50.982;11.022;2023-06-22T07:54:20;5.00;;;4.05;;
28836;SDS011;50669;50.982;11.022;2023-06-22T07:56:46;5.55;;;4.55;;
28836;SDS011;50669;50.982;11.022;2023-06-22T07:59:11;6.20;;;4.30;;
28836;SDS011;50669;50.982;11.022;2023-06-22T08:01:37;6.13;;;5.10;;
28836;SDS011;50669;50.982;11.022;2023-06-22T08:04:05;5.18;;;4.35;;
28836;SDS011;50669;50.982;11.022;2023-06-22T08:06:31;6.18;;;4.75;;
28836;SDS011;50669;50.982;11.022;2023-06-22T08:09:01;4.70;;;4.13;;
28836;SDS011;50669;50.982;11.022;2023-06-22T08:11:29;7.00;;;4.63;;
28836;SDS011;50669;50.982;11.022;2023-06-22T08:13:54;5.05;;;4.07;;
28836;SDS011;50669;50.982;11.022;2023-06-22T08:16:23;5.75;;;4.45;;
28836;SDS011;50669;50.982;11.022;2023-06-22T08:18:48;6.45;;;4.70;;
28836;SDS011;50669;50.982;11.022;2023-06-22T08:21:18;6.63;;;4.60;;
28836;SDS011;50669;50.982;11.022;2023-06-22T08:23:44;6.30;;;4.38;;
28836;SDS011;50669;50.982;11.022;2023-06-22T08:26:12;4.85;;;4.13;;
28836;SDS011;50669;50.982;11.022;2023-06-22T08:28:38;4.10;;;3.42;;
28836;SDS011;50669;50.982;11.022;2023-06-22T08:31:04;7.85;;;4.68;;
28836;SDS011;50669;50.982;11.022;2023-06-22T08:33:30;8.68;;;4.45;;
28836;SDS011;50669;50.982;11.022;2023-06-22T08:36:01;6.30;;;4.50;;
28836;SDS011;50669;50.982;11.022;2023-06-22T08:38:31;4.50;;;4.10;;
28836;SDS011;50669;50.982;11.022;2023-06-22T08:40:57;5.40;;;4.03;;
28836;SDS011;50669;50.982;11.022;2023-06-22T08:43:25;4.28;;;3.83;;
28836;SDS011;50669;50.982;11.022;2023-06-22T08:45:53;4.80;;;4.10;;
28836;SDS011;50669;50.982;11.022;2023-06-22T08:48:21;4.30;;;3.85;;
28836;SDS011;50669;50.982;11.022;2023-06-22T08:50:46;5.47;;;4.38;;
28836;SDS011;50669;50.982;11.022;2023-06-22T08:53:15;5.55;;;3.90;;
28836;SDS011;50669;50.982;11.022;2023-06-22T08:55:40;4.80;;;4.10;;
28836;SDS011;50669;50.982;11.022;2023-06-22T08:58:08;5.07;;;4.10;;
28836;SDS011;50669;50.982;11.022;2023-06-22T09:00:36;5.05;;;4.53;;
28836;SDS011;50669;50.982;11.022;2023-06-22T09:03:02;4.82;;;4.30;;
28836;SDS011;50669;50.982;11.022;2023-06-22T09:05:30;5.45;;;4.00;;
28836;SDS011;50669;50.982;11.022;2023-06-22T09:07:56;4.28;;;3.88;;
28836;SDS011;50669;50.982;11.022;2023-06-22T09:10:23;4.88;;;4.38;;
28836;SDS011;50669;50.982;11.022;2023-06-22T09:12:49;5.68;;;4.45;;
28836;SDS011;50669;50.982;11.022;2023-06-22T09:15:15;6.00;;;4.30;;
28836;SDS011;50669;50.982;11.022;2023-06-22T09:17:41;5.18;;;4.00;;
28836;SDS011;50669;50.982;11.022;2023-06-22T09:20:07;5.07;;;3.85;;
28836;SDS011;50669;50.982;11.022;2023-06-22T09:22:35;5.40;;;3.60;;
28836;SDS011;50669;50.982;11.022;2023-06-22T09:25:01;5.35;;;3.85;;
28836;SDS011;50669;50.982;11.022;2023-06-22T09:27:28;4.90;;;4.32;;
28836;SDS011;50669;50.982;11.022;2023-06-22T09:29:53;5.28;;;4.05;;
28836;SDS011;50669;50.982;11.022;2023-06-22T09:32:26;5.03;;;4.53;;
28836;SDS011;50669;50.982;11.022;2023-06-22T09:34:52;4.82;;;4.25;;
28836;SDS011;50669;50.982;11.022;2023-06-22T09:37:20;5.07;;;4.30;;
28836;SDS011;50669;50.982;11.022;2023-06-22T09:39:45;5.35;;;4.05;;
28836;SDS011;50669;50.982;11.022;2023-06-22T09:42:13;4.45;;;4.00;;
28836;SDS011;50669;50.982;11.022;2023-06-22T09:44:39;5.60;;;3.65;;
28836;SDS011;50669;50.982;11.022;2023-06-22T09:47:05;5.63;;;4.03;;
28836;SDS011;50669;50.982;11.022;2023-06-22T09:49:31;4.80;;;3.75;;
28836;SDS011;50669;50.982;11.022;2023-06-22T09:51:59;6.20;;;4.13;;
28836;SDS011;50669;50.982;11.022;2023-06-22T09:54:27;4.60;;;4.18;;
28836;SDS011;50669;50.982;11.022;2023-06-22T09:56:55;4.15;;;3.70;;
28836;SDS011;50669;50.982;11.022;2023-06-22T09:59:20;6.75;;;3.90;;
28836;SDS011;50669;50.982;11.022;2023-06-22T10:01:46;4.65;;;4.07;;
28836;SDS011;50669;50.982;11.022;2023-06-22T10:04:12;4.53;;;4.13;;
28836;SDS011;50669;50.982;11.022;2023-06-22T10:06:37;4.97;;;3.88;;
28836;SDS011;50669;50.982;11.022;2023-06-22T10:09:05;4.85;;;4.03;;
28836;SDS011;50669;50.982;11.022;2023-06-22T10:11:35;4.35;;;3.92;;
28836;SDS011;50669;50.982;11.022;2023-06-22T10:14:02;4.45;;;3.80;;
28836;SDS011;50669;50.982;11.022;2023-06-22T10:16:32;5.38;;;4.78;;
28836;SDS011;50669;50.982;11.022;2023-06-22T10:19:03;5.50;;;4.68;;
28836;SDS011;50669;50.982;11.022;2023-06-22T10:21:30;5.07;;;3.92;;
28836;SDS011;50669;50.982;11.022;2023-06-22T10:23:56;4.78;;;4.28;;
28836;SDS011;50669;50.982;11.022;2023-06-22T10:26:22;4.68;;;3.85;;
28836;SDS011;50669;50.982;11.022;2023-06-22T10:28:51;4.32;;;3.92;;
28836;SDS011;50669;50.982;11.022;2023-06-22T10:31:21;4.97;;;4.10;;
28836;SDS011;50669;50.982;11.022;2023-06-22T10:33:47;5.25;;;3.90;;
28836;SDS011;50669;50.982;11.022;2023-06-22T10:36:14;4.20;;;3.80;;
28836;SDS011;50669;50.982;11.022;2023-06-22T10:38:40;4.25;;;3.72;;
28836;SDS011;50669;50.982;11.022;2023-06-22T10:41:08;5.90;;;4.45;;
28836;SDS011;50669;50.982;11.022;2023-06-22T10:43:34;4.40;;;3.75;;
28836;SDS011;50669;50.982;11.022;2023-06-22T10:46:02;4.40;;;3.97;;
28836;SDS011;50669;50.982;11.022;2023-06-22T10:48:27;5.28;;;3.90;;
28836;SDS011;50669;50.982;11.022;2023-06-22T10:50:53;4.60;;;4.00;;
28836;SDS011;50669;50.982;11.022;2023-06-22T10:53:19;4.65;;;3.75;;
28836;SDS011;50669;50.982;11.022;2023-06-22T10:55:45;4.28;;;3.88;;
28836;SDS011;50669;50.982;11.022;2023-06-22T10:58:11;5.63;;;4.20;;
28836;SDS011;50669;50.982;11.022;2023-06-22T11:00:36;4.50;;;3.85;;
28836;SDS011;50669;50.982;11.022;2023-06-22T11:03:04;4.78;;;3.90;;
28836;SDS011;50669;50.982;11.022;2023-06-22T11:05:31;5.28;;;3.95;;
28836;SDS011;50669;50.982;11.022;2023-06-22T11:07:57;4.20;;;3.80;;
28836;SDS011;50669;50.982;11.022;2023-06-22T11:10:25;5.22;;;3.80;;
28836;SDS011;50669;50.982;11.022;2023-06-22T11:12:51;4.25;;;3.85;;
28836;SDS011;50669;50.982;11.022;2023-06-22T11:15:23;4.57;;;4.13;;
28836;SDS011;50669;50.982;11.022;2023-06-22T11:17:49;4.47;;;3.65;;
28836;SDS011;50669;50.982;11.022;2023-06-22T11:20:14;5.18;;;4.18;;
28836;SDS011;50669;50.982;11.022;2023-06-22T11:22:41;4.40;;;4.00;;
28836;SDS011;50669;50.982;11.022;2023-06-22T11:25:09;4.25;;;3.55;;
28836;SDS011;50669;50.982;11.022;2023-06-22T11:27:38;4.40;;;3.70;;
28836;SDS011;50669;50.982;11.022;2023-06-22T11:30:04;4.43;;;4.03;;
28836;SDS011;50669;50.982;11.022;2023-06-22T11:32:31;3.75;;;3.35;;
28836;SDS011;50669;50.982;11.022;2023-06-22T11:34:56;4.97;;;3.90;;
28836;SDS011;50669;50.982;11.022;2023-06-22T11:37:22;4.95;;;3.55;;
28836;SDS011;50669;50.982;11.022;2023-06-22T11:39:47;4.88;;;4.07;;
28836;SDS011;50669;50.982;11.022;2023-06-22T11:42:15;5.10;;;3.65;;
28836;SDS011;50669;50.982;11.022;2023-06-22T11:44:41;4.78;;;3.85;;
28836;SDS011;50669;50.982;11.022;2023-06-22T11:47:09;4.25;;;3.65;;
28836;SDS011;50669;50.982;11.022;2023-06-22T11:49:35;4.43;;;3.75;;
28836;SDS011;50669;50.982;11.022;2023-06-22T11:52:01;4.80;;;3.92;;
28836;SDS011;50669;50.982;11.022;2023-06-22T11:54:26;4.20;;;3.80;;
28836;SDS011;50669;50.982;11.022;2023-06-22T11:56:54;4.32;;;3.60;;
28836;SDS011;50669;50.982;11.022;2023-06-22T11:59:20;4.70;;;4.13;;
28836;SDS011;50669;50.982;11.022;2023-06-22T12:01:47;4.78;;;4.15;;
28836;SDS011;50669;50.982;11.022;2023-06-22T12:04:14;4.47;;;4.07;;
28836;SDS011;50669;50.982;11.022;2023-06-22T12:06:39;4.65;;;3.80;;
28836;SDS011;50669;50.982;11.022;2023-06-22T12:09:07;4.30;;;3.90;;
28836;SDS011;50669;50.982;11.022;2023-06-22T12:11:32;4.45;;;3.88;;
28836;SDS011;50669;50.982;11.022;2023-06-22T12:13:58;5.00;;;4.05;;
28836;SDS011;50669;50.982;11.022;2023-06-22T12:16:27;4.13;;;3.63;;
28836;SDS011;50669;50.982;11.022;2023-06-22T12:18:53;5.43;;;3.97;;
28836;SDS011;50669;50.982;11.022;2023-06-22T12:21:19;4.15;;;3.42;;
28836;SDS011;50669;50.982;11.022;2023-06-22T12:23:47;4.07;;;3.67;;
28836;SDS011;50669;50.982;11.022;2023-06-22T12:26:13;5.75;;;3.88;;
28836;SDS011;50669;50.982;11.022;2023-06-22T12:28:39;4.10;;;3.70;;
28836;SDS011;50669;50.982;11.022;2023-06-22T12:31:05;4.10;;;3.65;;
28836;SDS011;50669;50.982;11.022;2023-06-22T12:33:33;3.67;;;3.35;;
28836;SDS011;50669;50.982;11.022;2023-06-22T12:35:59;4.40;;;4.00;;
28836;SDS011;50669;50.982;11.022;2023-06-22T12:38:24;3.50;;;3.20;;
28836;SDS011;50669;50.982;11.022;2023-06-22T12:40:57;4.85;;;3.90;;
28836;SDS011;50669;50.982;11.022;2023-06-22T12:43:25;4.63;;;4.15;;
28836;SDS011;50669;50.982;11.022;2023-06-22T12:45:53;4.97;;;4.13;;
28836;SDS011;50669;50.982;11.022;2023-06-22T12:48:22;4.25;;;3.83;;
28836;SDS011;50669;50.982;11.022;2023-06-22T12:50:47;4.35;;;3.60;;
28836;SDS011;50669;50.982;11.022;2023-06-22T12:53:13;4.18;;;3.78;;
28836;SDS011;50669;50.982;11.022;2023-06-22T12:55:39;4.22;;;3.80;;
28836;SDS011;50669;50.982;11.022;2023-06-22T12:58:04;4.45;;;4.05;;
28836;SDS011;50669;50.982;11.022;2023-06-22T13:00:30;4.25;;;3.85;;
28836;SDS011;50669;50.982;11.022;2023-06-22T13:02:56;4.82;;;4.00;;
28836;SDS011;50669;50.982;11.022;2023-06-22T13:05:21;3.97;;;3.53;;
28836;SDS011;50669;50.982;11.022;2023-06-22T13:07:49;6.68;;;3.50;;
28836;SDS011;50669;50.982;11.022;2023-06-22T13:10:17;4.22;;;3.83;;
28836;SDS011;50669;50.982;11.022;2023-06-22T13:12:45;3.95;;;3.60;;
28836;SDS011;50669;50.982;11.022;2023-06-22T13:15:13;4.13;;;3.60;;
28836;SDS011;50669;50.982;11.022;2023-06-22T13:17:39;3.92;;;3.53;;
28836;SDS011;50669;50.982;11.022;2023-06-22T13:20:05;4.35;;;3.90;;
28836;SDS011;50669;50.982;11.022;2023-06-22T13:22:32;4.00;;;3.17;;
28836;SDS011;50669;50.982;11.022;2023-06-22T13:25:04;4.97;;;3.72;;
28836;SDS011;50669;50.982;11.022;2023-06-22T13:27:31;3.67;;;3.38;;
28836;SDS011;50669;50.982;11.022;2023-06-22T13:29:59;4.35;;;3.70;;
28836;SDS011;50669;50.982;11.022;2023-06-22T13:32:27;4.50;;;3.60;;
28836;SDS011;50669;50.982;11.022;2023-06-22T13:34:53;3.95;;;3.53;;
28836;SDS011;50669;50.982;11.022;2023-06-22T13:37:19;4.53;;;3.45;;
28836;SDS011;50669;50.982;11.022;2023-06-22T13:39:45;3.65;;;3.30;;
28836;SDS011;50669;50.982;11.022;2023-06-22T13:42:10;3.88;;;3.58;;
28836;SDS011;50669;50.982;11.022;2023-06-22T13:44:38;4.10;;;3.60;;
28836;SDS011;50669;50.982;11.022;2023-06-22T13:47:06;4.10;;;3.70;;
28836;SDS011;50669;50.982;11.022;2023-06-22T13:49:32;4.03;;;3.63;;
28836;SDS011;50669;50.982;11.022;2023-06-22T13:51:58;4.05;;;3.53;;
28836;SDS011;50669;50.982;11.022;2023-06-22T13:54:24;3.95;;;3.55;;
28836;SDS011;50669;50.982;11.022;2023-06-22T13:56:50;3.78;;;3.35;;
28836;SDS011;50669;50.982;11.022;2023-06-22T13:59:16;3.80;;;3.40;;
28836;SDS011;50669;50.982;11.022;2023-06-22T14:01:41;4.35;;;3.60;;
28836;SDS011;50669;50.982;11.022;2023-06-22T14:04:08;4.05;;;3.45;;
28836;SDS011;50669;50.982;11.022;2023-06-22T14:06:34;3.65;;;3.10;;
28836;SDS011;50669;50.982;11.022;2023-06-22T14:08:59;4.07;;;3.22;;
28836;SDS011;50669;50.982;11.022;2023-06-22T14:11:27;3.88;;;3.50;;
28836;SDS011;50669;50.982;11.022;2023-06-22T14:13:55;3.80;;;3.50;;
28836;SDS011;50669;50.982;11.022;2023-06-22T14:16:21;3.78;;;3.40;;
28836;SDS011;50669;50.982;11.022;2023-06-22T14:18:47;3.60;;;3.05;;
28836;SDS011;50669;50.982;11.022;2023-06-22T14:21:12;3.83;;;3.13;;
28836;SDS011;50669;50.982;11.022;2023-06-22T14:23:38;4.78;;;3.40;;
28836;SDS011;50669;50.982;11.022;2023-06-22T14:26:03;3.67;;;3.38;;
28836;SDS011;50669;50.982;11.022;2023-06-22T14:28:29;3.45;;;3.10;;
28836;SDS011;50669;50.982;11.022;2023-06-22T14:30:57;3.33;;;3.03;;
28836;SDS011;50669;50.982;11.022;2023-06-22T14:33:25;3.58;;;3.22;;
28836;SDS011;50669;50.982;11.022;2023-06-22T14:35:54;4.93;;;3.78;;
28836;SDS011;50669;50.982;11.022;2023-06-22T14:38:21;3.90;;;3.50;;
28836;SDS011;50669;50.982;11.022;2023-06-22T14:40:47;4.82;;;3.70;;
28836;SDS011;50669;50.982;11.022;2023-06-22T14:43:13;4.32;;;3.20;;
28836;SDS011;50669;50.982;11.022;2023-06-22T14:45:41;4.00;;;3.60;;